createdAt,value
2018-06-29T00:00:08.380Z,19.22
2018-06-29T00:02:37.172Z,19.17
2018-06-29T00:05:06.663Z,19.16
2018-06-29T00:07:35.529Z,19.15
2018-06-29T00:10:05.966Z,19.18
2018-06-29T00:12:35.137Z,19.22
2018-06-29T00:15:04.603Z,19.17
2018-06-29T00:17:33.936Z,19.15
2018-06-29T00:20:04.228Z,19.15
2018-06-29T00:22:33.024Z,19.14
2018-06-29T00:25:02.802Z,19.14
2018-06-29T00:27:31.757Z,19.10
2018-06-29T00:30:00.528Z,19.04
2018-06-29T00:32:29.276Z,19.09
2018-06-29T00:34:58.041Z,19.08
2018-06-29T00:37:27.001Z,19.07
2018-06-29T00:39:55.730Z,19.07
2018-06-29T00:42:24.429Z,19.01
2018-06-29T00:44:53.732Z,19.00
2018-06-29T00:47:22.497Z,19.02
2018-06-29T00:49:51.163Z,19.02
2018-06-29T00:52:19.825Z,19.07
2018-06-29T00:54:48.531Z,19.08
2018-06-29T00:57:17.152Z,19.11
2018-06-29T00:59:45.815Z,19.15
2018-06-29T01:02:14.487Z,19.15
2018-06-29T01:04:43.154Z,19.14
2018-06-29T01:07:11.792Z,19.13
2018-06-29T01:09:40.487Z,19.10
2018-06-29T01:12:09.131Z,19.08
2018-06-29T01:14:37.782Z,19.10
2018-06-29T01:17:06.427Z,19.07
2018-06-29T01:19:35.335Z,19.01
2018-06-29T01:22:04.027Z,18.99
2018-06-29T01:24:32.744Z,19.08
2018-06-29T01:27:01.447Z,19.04
2018-06-29T01:29:30.238Z,19.03
2018-06-29T01:31:58.909Z,18.97
2018-06-29T01:34:27.560Z,19.00
2018-06-29T01:36:56.232Z,18.95
2018-06-29T01:39:24.930Z,18.95
2018-06-29T01:41:53.659Z,18.95
2018-06-29T01:44:22.259Z,18.95
2018-06-29T01:46:51.008Z,18.97
2018-06-29T01:49:19.697Z,18.94
2018-06-29T01:51:48.370Z,18.91
2018-06-29T01:54:17.033Z,18.94
2018-06-29T01:56:46.232Z,18.91
2018-06-29T01:59:14.871Z,18.92
2018-06-29T02:01:43.555Z,18.94
2018-06-29T02:04:12.257Z,18.87
2018-06-29T02:06:40.896Z,18.85
2018-06-29T02:09:10.223Z,18.91
2018-06-29T02:11:38.875Z,18.82
2018-06-29T02:14:07.567Z,18.80
2018-06-29T02:16:36.202Z,18.79
2018-06-29T02:19:05.139Z,18.78
2018-06-29T02:21:33.715Z,18.76
2018-06-29T02:24:02.524Z,18.66
2018-06-29T02:26:31.218Z,18.69
2018-06-29T02:28:59.902Z,18.73
2018-06-29T02:31:28.575Z,18.76
2018-06-29T02:33:57.313Z,18.66
2018-06-29T02:36:25.924Z,18.61
2018-06-29T02:38:54.599Z,18.55
2018-06-29T02:41:23.228Z,18.54
2018-06-29T02:43:51.885Z,18.44
2018-06-29T02:46:20.568Z,18.44
2018-06-29T02:48:49.280Z,18.41
2018-06-29T02:51:17.970Z,18.44
2018-06-29T02:53:46.657Z,18.44
2018-06-29T02:56:15.326Z,18.46
2018-06-29T02:58:43.997Z,18.47
2018-06-29T03:01:12.683Z,18.42
2018-06-29T03:03:41.364Z,18.44
2018-06-29T03:06:10.044Z,18.46
2018-06-29T03:08:38.725Z,18.41
2018-06-29T03:11:07.517Z,18.38
2018-06-29T03:13:36.357Z,18.38
2018-06-29T03:16:05.075Z,18.40
2018-06-29T03:18:34.240Z,18.44
2018-06-29T03:21:02.929Z,18.46
2018-06-29T03:23:31.627Z,18.47
2018-06-29T03:26:00.291Z,18.40
2018-06-29T03:28:29.006Z,18.46
2018-06-29T03:30:57.719Z,18.50
2018-06-29T03:33:26.343Z,18.46
2018-06-29T03:35:55.131Z,18.46
2018-06-29T03:38:23.833Z,18.53
2018-06-29T03:40:52.539Z,18.47
2018-06-29T03:43:21.226Z,18.43
2018-06-29T03:45:49.987Z,18.59
2018-06-29T03:48:18.731Z,18.78
2018-06-29T03:50:47.385Z,18.85
2018-06-29T03:53:16.035Z,18.85
2018-06-29T03:55:44.751Z,18.88
2018-06-29T03:58:13.470Z,18.94
2018-06-29T04:00:42.123Z,18.81
2018-06-29T04:03:10.900Z,18.87
2018-06-29T04:05:39.832Z,18.86
2018-06-29T04:08:08.563Z,18.93
2018-06-29T04:10:37.279Z,19.01
2018-06-29T04:13:06.316Z,18.94
2018-06-29T04:15:34.943Z,19.01
2018-06-29T04:18:03.717Z,19.03
2018-06-29T04:20:32.406Z,19.06
2018-06-29T04:23:01.084Z,19.11
2018-06-29T04:25:29.749Z,19.12
2018-06-29T04:27:59.080Z,19.25
2018-06-29T04:30:27.779Z,19.37
2018-06-29T04:32:56.485Z,19.39
2018-06-29T04:35:25.357Z,19.39
2018-06-29T04:37:55.823Z,19.52
2018-06-29T04:40:24.817Z,19.57
2018-06-29T04:42:54.190Z,19.57
2018-06-29T04:45:24.555Z,19.57
2018-06-29T04:47:54.461Z,19.55
2018-06-29T04:50:23.144Z,19.48
2018-06-29T04:52:51.829Z,19.53
2018-06-29T04:55:20.491Z,19.63
2018-06-29T04:57:49.174Z,19.58
2018-06-29T05:00:18.562Z,19.69
2018-06-29T05:02:47.251Z,19.60
2018-06-29T05:05:16.039Z,19.75
2018-06-29T05:07:45.093Z,19.71
2018-06-29T05:10:13.828Z,19.79
2018-06-29T05:12:42.495Z,19.80
2018-06-29T05:15:11.467Z,19.76
2018-06-29T05:17:40.185Z,19.90
2018-06-29T05:20:08.859Z,19.91
2018-06-29T05:22:37.576Z,20.04
2018-06-29T05:25:06.264Z,19.84
2018-06-29T05:27:35.935Z,19.84
2018-06-29T05:30:06.323Z,19.92
2018-06-29T05:32:35.471Z,19.99
2018-06-29T05:35:04.189Z,19.89
2018-06-29T05:37:32.899Z,19.98
2018-06-29T05:40:02.582Z,20.00
2018-06-29T05:42:31.344Z,19.89
2018-06-29T05:45:02.291Z,19.98
2018-06-29T05:47:31.690Z,19.98
2018-06-29T05:50:01.201Z,20.01
2018-06-29T05:52:31.411Z,20.02
2018-06-29T05:55:04.152Z,20.01
2018-06-29T05:57:38.154Z,20.04
2018-06-29T06:00:11.206Z,20.18
2018-06-29T06:02:39.873Z,20.00
2018-06-29T06:05:08.524Z,19.98
2018-06-29T06:07:37.268Z,20.19
2018-06-29T06:10:06.492Z,20.25
2018-06-29T06:12:35.152Z,20.21
2018-06-29T06:15:04.586Z,20.11
2018-06-29T06:17:33.341Z,20.21
2018-06-29T06:20:07.025Z,20.33
2018-06-29T06:22:36.732Z,20.54
2018-06-29T06:25:05.859Z,20.53
2018-06-29T06:27:34.589Z,20.39
2018-06-29T06:30:03.289Z,20.30
2018-06-29T06:32:32.969Z,20.36
2018-06-29T06:35:01.654Z,20.42
2018-06-29T06:37:30.315Z,20.31
2018-06-29T06:39:59.002Z,20.40
2018-06-29T06:42:28.547Z,20.56
2018-06-29T06:44:57.253Z,20.06
2018-06-29T06:47:25.987Z,20.13
2018-06-29T06:49:54.690Z,20.17
2018-06-29T06:52:23.377Z,20.04
2018-06-29T06:54:52.547Z,20.12
2018-06-29T06:57:21.670Z,20.37
2018-06-29T06:59:50.805Z,20.45
2018-06-29T07:02:19.557Z,20.65
2018-06-29T07:04:48.240Z,20.53
2018-06-29T07:07:16.906Z,20.54
2018-06-29T07:09:45.591Z,20.79
2018-06-29T07:12:14.298Z,21.14
2018-06-29T07:14:42.969Z,21.34
2018-06-29T07:17:11.737Z,21.53
2018-06-29T07:19:40.512Z,21.37
2018-06-29T07:22:09.319Z,21.33
2018-06-29T07:24:38.035Z,21.46
2018-06-29T07:27:06.792Z,22.18
2018-06-29T07:29:35.491Z,22.18
2018-06-29T07:32:04.198Z,22.47
2018-06-29T07:34:32.884Z,22.79
2018-06-29T07:37:01.545Z,22.43
2018-06-29T07:39:30.980Z,22.18
2018-06-29T07:41:59.664Z,22.53
2018-06-29T07:44:28.396Z,22.79
2018-06-29T07:46:57.140Z,21.92
2018-06-29T07:49:25.888Z,22.12
2018-06-29T07:51:54.922Z,22.43
2018-06-29T07:54:23.601Z,22.46
2018-06-29T07:56:52.492Z,22.98
2018-06-29T07:59:21.162Z,22.84
2018-06-29T08:01:49.928Z,22.95
2018-06-29T08:04:18.961Z,22.40
2018-06-29T08:06:47.696Z,22.99
2018-06-29T08:09:16.399Z,23.11
2018-06-29T08:11:45.328Z,22.93
2018-06-29T08:14:14.460Z,23.26
2018-06-29T08:16:43.475Z,23.14
2018-06-29T08:19:12.228Z,23.41
2018-06-29T08:21:40.981Z,23.05
2018-06-29T08:24:10.655Z,22.69
2018-06-29T08:26:39.363Z,23.10
2018-06-29T08:29:08.503Z,22.84
2018-06-29T08:31:37.696Z,23.11
2018-06-29T08:34:06.387Z,22.68
2018-06-29T08:36:35.483Z,22.46
2018-06-29T08:39:06.422Z,22.70
2018-06-29T08:41:35.557Z,23.00
2018-06-29T08:44:04.611Z,22.83
2018-06-29T08:46:33.280Z,22.71
2018-06-29T08:49:01.946Z,22.60
2018-06-29T08:51:30.678Z,22.94
2018-06-29T08:53:59.664Z,22.91
2018-06-29T08:56:28.436Z,23.43
2018-06-29T08:58:57.168Z,23.45
2018-06-29T09:01:25.909Z,23.46
2018-06-29T09:03:54.578Z,23.87
2018-06-29T09:06:23.259Z,23.65
2018-06-29T09:08:51.970Z,23.90
2018-06-29T09:11:20.712Z,24.05
2018-06-29T09:13:49.699Z,24.12
2018-06-29T09:16:19.258Z,24.17
2018-06-29T09:18:48.044Z,24.25
2018-06-29T09:21:16.756Z,24.21
2018-06-29T09:23:45.547Z,24.28
2018-06-29T09:26:14.940Z,24.59
2018-06-29T09:28:44.293Z,24.53
2018-06-29T09:31:13.035Z,24.41
2018-06-29T09:33:41.799Z,24.56
2018-06-29T09:36:10.793Z,24.95
2018-06-29T09:38:39.559Z,25.27
2018-06-29T09:41:09.424Z,24.58
2018-06-29T09:43:38.195Z,24.55
2018-06-29T09:46:07.045Z,24.44
2018-06-29T09:48:35.674Z,24.38
2018-06-29T09:51:04.439Z,24.83
2018-06-29T09:53:33.322Z,24.19
2018-06-29T09:56:02.942Z,23.84
2018-06-29T09:58:31.591Z,23.69
2018-06-29T10:01:00.597Z,23.83
2018-06-29T10:03:29.276Z,24.01
2018-06-29T10:05:58.229Z,23.98
2018-06-29T10:08:26.990Z,24.11
2018-06-29T10:10:55.772Z,24.24
2018-06-29T10:13:24.796Z,24.02
2018-06-29T10:15:54.485Z,23.82
2018-06-29T10:18:23.309Z,24.45
2018-06-29T10:20:52.093Z,24.13
2018-06-29T10:23:20.943Z,24.92
2018-06-29T10:25:50.391Z,25.18
2018-06-29T10:28:19.770Z,25.60
2018-06-29T10:30:49.256Z,25.43
2018-06-29T10:33:18.034Z,25.71
2018-06-29T10:35:46.796Z,25.53
2018-06-29T10:38:15.523Z,25.47
2018-06-29T10:40:44.341Z,25.36
2018-06-29T10:43:14.196Z,25.21
2018-06-29T10:45:42.981Z,24.59
2018-06-29T10:48:11.761Z,24.59
2018-06-29T10:50:40.536Z,24.85
2018-06-29T10:53:09.280Z,25.23
2018-06-29T10:55:38.969Z,25.37
2018-06-29T10:58:08.059Z,25.79
2018-06-29T11:00:37.191Z,25.69
2018-06-29T11:03:06.676Z,25.65
2018-06-29T11:05:35.465Z,25.38
2018-06-29T11:08:04.500Z,25.19
2018-06-29T11:10:33.309Z,24.39
2018-06-29T11:13:02.467Z,24.51
2018-06-29T11:15:31.353Z,24.68
2018-06-29T11:18:00.131Z,24.54
2018-06-29T11:20:29.946Z,24.68
2018-06-29T11:22:58.814Z,24.63
2018-06-29T11:25:27.531Z,24.82
2018-06-29T11:27:56.204Z,24.74
2018-06-29T11:30:25.049Z,24.79
2018-06-29T11:32:54.065Z,24.79
2018-06-29T11:35:22.741Z,25.29
2018-06-29T11:37:51.403Z,25.35
2018-06-29T11:40:20.133Z,25.58
2018-06-29T11:42:48.801Z,25.47
2018-06-29T11:45:17.511Z,25.31
2018-06-29T11:47:46.545Z,25.61
2018-06-29T11:50:15.227Z,25.82
2018-06-29T11:52:44.707Z,25.39
2018-06-29T11:55:13.436Z,25.45
2018-06-29T11:57:42.079Z,25.37
2018-06-29T12:00:11.278Z,25.61
2018-06-29T12:02:39.953Z,25.93
2018-06-29T12:05:08.671Z,26.40
2018-06-29T12:07:37.793Z,26.60
2018-06-29T12:10:06.589Z,25.90
2018-06-29T12:12:35.382Z,26.34
2018-06-29T12:15:04.052Z,26.28
2018-06-29T12:17:32.896Z,26.24
2018-06-29T12:20:01.653Z,26.11
2018-06-29T12:22:30.450Z,26.26
2018-06-29T12:24:59.196Z,26.04
2018-06-29T12:27:27.845Z,26.22
2018-06-29T12:29:56.574Z,26.79
2018-06-29T12:32:26.045Z,26.82
2018-06-29T12:34:54.778Z,26.62
2018-06-29T12:37:23.482Z,26.71
2018-06-29T12:39:52.148Z,26.30
2018-06-29T12:42:20.853Z,26.35
2018-06-29T12:44:49.605Z,26.41
2018-06-29T12:47:18.359Z,26.52
2018-06-29T12:49:47.131Z,26.62
2018-06-29T12:52:15.814Z,26.31
2018-06-29T12:54:44.519Z,26.01
2018-06-29T12:57:13.241Z,26.08
2018-06-29T12:59:43.046Z,25.77
2018-06-29T13:02:11.705Z,25.63
2018-06-29T13:04:40.379Z,25.81
2018-06-29T13:07:09.083Z,25.93
2018-06-29T13:09:37.806Z,25.75
2018-06-29T13:12:06.512Z,25.69
2018-06-29T13:14:35.153Z,25.44
2018-06-29T13:17:03.889Z,25.49
2018-06-29T13:19:32.607Z,25.35
2018-06-29T13:22:01.252Z,25.60
2018-06-29T13:24:30.495Z,26.03
2018-06-29T13:26:59.184Z,25.90
2018-06-29T13:29:27.893Z,25.94
2018-06-29T13:31:56.591Z,25.97
2018-06-29T13:34:25.752Z,26.02
2018-06-29T13:36:54.850Z,25.69
2018-06-29T13:39:23.558Z,25.63
2018-06-29T13:41:52.489Z,25.49
2018-06-29T13:44:21.227Z,25.31
2018-06-29T13:46:49.920Z,24.95
2018-06-29T13:49:18.675Z,24.93
2018-06-29T13:51:47.321Z,25.21
2018-06-29T13:54:16.550Z,25.24
2018-06-29T13:56:45.236Z,25.13
2018-06-29T13:59:14.028Z,24.73
2018-06-29T14:01:43.156Z,24.85
2018-06-29T14:04:11.843Z,24.70
2018-06-29T14:06:40.708Z,24.75
2018-06-29T14:09:09.464Z,24.85
2018-06-29T14:11:38.182Z,24.89
2018-06-29T14:14:06.860Z,25.06
2018-06-29T14:16:35.509Z,24.77
2018-06-29T14:19:04.628Z,24.30
2018-06-29T14:21:33.682Z,24.32
2018-06-29T14:24:02.386Z,24.43
2018-06-29T14:26:31.062Z,24.57
2018-06-29T14:28:59.813Z,24.88
2018-06-29T14:31:28.755Z,24.87
2018-06-29T14:33:57.437Z,25.04
2018-06-29T14:36:26.115Z,25.16
2018-06-29T14:38:54.763Z,24.99
2018-06-29T14:41:23.415Z,24.97
2018-06-29T14:43:52.188Z,25.10
2018-06-29T14:46:21.735Z,24.84
2018-06-29T14:48:50.367Z,24.84
2018-06-29T14:51:19.052Z,25.07
2018-06-29T14:53:47.735Z,24.63
2018-06-29T14:56:16.495Z,24.82
2018-06-29T14:58:45.947Z,24.60
2018-06-29T15:01:15.668Z,24.66
2018-06-29T15:03:44.344Z,24.66
2018-06-29T15:06:13.808Z,24.65
2018-06-29T15:08:44.386Z,24.78
2018-06-29T15:11:13.055Z,24.73
2018-06-29T15:13:42.327Z,24.56
2018-06-29T15:16:10.986Z,24.65
2018-06-29T15:18:39.680Z,24.58
2018-06-29T15:21:08.629Z,24.70
2018-06-29T15:23:38.325Z,24.93
2018-06-29T15:26:07.574Z,24.86
2018-06-29T15:28:36.352Z,24.78
2018-06-29T15:31:05.246Z,24.80
2018-06-29T15:33:33.930Z,24.55
2018-06-29T15:36:02.639Z,24.35
2018-06-29T15:38:31.533Z,24.30
2018-06-29T15:41:00.202Z,24.43
2018-06-29T15:43:28.878Z,24.69
2018-06-29T15:45:57.515Z,24.29
2018-06-29T15:48:27.248Z,24.35
2018-06-29T15:50:56.004Z,24.38
2018-06-29T15:53:25.102Z,24.60
2018-06-29T15:55:54.241Z,24.36
2018-06-29T15:58:23.290Z,24.38
2018-06-29T16:00:52.427Z,24.62
2018-06-29T16:03:21.380Z,24.47
2018-06-29T16:05:50.019Z,24.21
2018-06-29T16:08:18.736Z,24.09
2018-06-29T16:10:47.407Z,23.55
2018-06-29T16:13:16.110Z,23.20
2018-06-29T16:15:44.865Z,23.22
2018-06-29T16:18:13.496Z,23.39
2018-06-29T16:20:42.164Z,23.16
2018-06-29T16:23:10.874Z,22.96
2018-06-29T16:25:39.606Z,23.08
2018-06-29T16:28:08.320Z,23.12
2018-06-29T16:30:36.979Z,23.27
2018-06-29T16:33:05.670Z,23.26
2018-06-29T16:35:34.414Z,23.26
2018-06-29T16:38:03.099Z,23.14
2018-06-29T16:40:31.849Z,22.91
2018-06-29T16:43:00.522Z,23.11
2018-06-29T16:45:29.227Z,23.29
2018-06-29T16:47:57.934Z,23.30
2018-06-29T16:50:26.613Z,23.15
2018-06-29T16:52:55.621Z,22.80
2018-06-29T16:55:24.632Z,22.64
2018-06-29T16:57:53.937Z,22.76
2018-06-29T17:00:22.741Z,22.72
2018-06-29T17:02:51.428Z,22.81
2018-06-29T17:05:20.458Z,23.00
2018-06-29T17:07:49.120Z,23.06
2018-06-29T17:10:17.817Z,23.08
2018-06-29T17:12:46.596Z,22.99
2018-06-29T17:15:15.283Z,22.80
2018-06-29T17:17:44.606Z,22.60
2018-06-29T17:20:13.303Z,22.63
2018-06-29T17:22:41.988Z,22.81
2018-06-29T17:25:10.756Z,22.88
2018-06-29T17:27:39.407Z,22.88
2018-06-29T17:30:08.202Z,22.81
2018-06-29T17:32:36.954Z,22.60
2018-06-29T17:35:06.147Z,22.54
2018-06-29T17:37:34.880Z,22.37
2018-06-29T17:40:03.970Z,22.25
2018-06-29T17:42:32.866Z,22.50
2018-06-29T17:45:01.515Z,22.31
2018-06-29T17:47:30.199Z,22.20
2018-06-29T17:49:58.894Z,22.14
2018-06-29T17:52:27.573Z,22.16
2018-06-29T17:54:56.310Z,22.47
2018-06-29T17:57:25.025Z,22.58
2018-06-29T17:59:53.842Z,22.47
2018-06-29T18:02:22.496Z,22.35
2018-06-29T18:04:51.177Z,22.28
2018-06-29T18:07:20.128Z,22.27
2018-06-29T18:09:48.824Z,21.94
2018-06-29T18:12:17.540Z,22.05
2018-06-29T18:14:46.230Z,22.18
2018-06-29T18:17:15.489Z,22.03
2018-06-29T18:19:44.380Z,21.83
2018-06-29T18:22:13.066Z,21.74
2018-06-29T18:24:41.844Z,21.76
2018-06-29T18:27:10.643Z,21.89
2018-06-29T18:29:39.723Z,21.84
2018-06-29T18:32:08.364Z,21.91
2018-06-29T18:34:37.115Z,21.94
2018-06-29T18:37:05.894Z,21.80
2018-06-29T18:39:34.895Z,21.73
2018-06-29T18:42:03.629Z,21.51
2018-06-29T18:44:32.371Z,21.31
2018-06-29T18:47:01.069Z,21.23
2018-06-29T18:49:29.728Z,21.18
2018-06-29T18:51:58.415Z,21.03
2018-06-29T18:54:27.200Z,20.95
2018-06-29T18:56:55.969Z,20.99
2018-06-29T18:59:24.644Z,20.95
2018-06-29T19:01:53.446Z,20.72
2018-06-29T19:04:22.132Z,20.68
2018-06-29T19:06:50.885Z,20.53
2018-06-29T19:09:19.610Z,20.46
2018-06-29T19:11:48.528Z,20.35
2018-06-29T19:14:17.252Z,20.09
2018-06-29T19:16:45.899Z,20.04
2018-06-29T19:19:14.592Z,20.09
2018-06-29T19:21:43.460Z,19.96
2018-06-29T19:24:12.288Z,20.04
2018-06-29T19:26:41.608Z,19.96
2018-06-29T19:29:10.410Z,19.81
2018-06-29T19:31:39.138Z,19.74
2018-06-29T19:34:09.641Z,19.65
2018-06-29T19:36:38.375Z,19.77
2018-06-29T19:39:08.589Z,19.73
2018-06-29T19:41:38.123Z,19.76
2018-06-29T19:44:07.730Z,19.69
2018-06-29T19:46:37.566Z,19.55
2018-06-29T19:49:06.352Z,19.41
2018-06-29T19:51:35.138Z,19.41
2018-06-29T19:54:03.974Z,19.66
2018-06-29T19:56:32.720Z,19.36
2018-06-29T19:59:02.759Z,19.24
2018-06-29T20:01:31.467Z,19.30
2018-06-29T20:04:00.199Z,19.37
2018-06-29T20:06:28.926Z,19.23
2018-06-29T20:08:58.496Z,19.03
2018-06-29T20:11:27.450Z,19.01
2018-06-29T20:13:56.016Z,18.91
2018-06-29T20:16:26.791Z,18.82
2018-06-29T20:18:55.465Z,19.04
2018-06-29T20:21:24.271Z,19.00
2018-06-29T20:23:53.039Z,19.16
2018-06-29T20:26:21.917Z,18.96
2018-06-29T20:28:50.774Z,19.02
2018-06-29T20:31:19.569Z,19.13
2018-06-29T20:33:48.287Z,19.10
2018-06-29T20:36:17.012Z,19.00
2018-06-29T20:38:45.982Z,18.78
2018-06-29T20:41:14.751Z,18.78
2018-06-29T20:43:43.479Z,18.76
2018-06-29T20:46:12.161Z,18.70
2018-06-29T20:48:40.797Z,18.71
2018-06-29T20:51:09.560Z,18.79
2018-06-29T20:53:38.295Z,18.63
2018-06-29T20:56:07.028Z,18.49
2018-06-29T20:58:35.686Z,18.39
2018-06-29T21:01:04.479Z,18.29
2018-06-29T21:03:33.165Z,18.18
2018-06-29T21:06:02.567Z,18.32
2018-06-29T21:08:31.228Z,18.20
2018-06-29T21:11:00.551Z,18.07
2018-06-29T21:13:29.272Z,18.04
2018-06-29T21:15:58.131Z,17.97
2018-06-29T21:18:26.794Z,18.03
2018-06-29T21:20:55.500Z,17.85
2018-06-29T21:23:24.204Z,17.73
2018-06-29T21:25:53.608Z,17.70
2018-06-29T21:28:22.266Z,17.59
2018-06-29T21:30:50.979Z,17.59
2018-06-29T21:33:19.648Z,17.62
2018-06-29T21:35:48.315Z,17.48
2018-06-29T21:38:17.023Z,17.53
2018-06-29T21:40:45.677Z,17.34
2018-06-29T21:43:15.415Z,17.31
2018-06-29T21:45:44.122Z,17.32
2018-06-29T21:48:12.809Z,17.35
2018-06-29T21:50:42.360Z,17.40
2018-06-29T21:53:11.252Z,17.30
2018-06-29T21:55:39.943Z,17.29
2018-06-29T21:58:08.684Z,17.25
2018-06-29T22:00:40.411Z,17.37
2018-06-29T22:03:10.263Z,17.41
2018-06-29T22:05:39.969Z,17.50
2018-06-29T22:08:09.467Z,17.48
2018-06-29T22:10:38.824Z,17.25
2018-06-29T22:13:07.731Z,17.49
2018-06-29T22:15:36.394Z,17.17
2018-06-29T22:18:05.269Z,17.23
2018-06-29T22:20:34.013Z,17.11
2018-06-29T22:23:02.668Z,17.41
2018-06-29T22:25:31.339Z,17.08
2018-06-29T22:28:00.119Z,16.86
2018-06-29T22:30:28.791Z,16.82
2018-06-29T22:32:57.515Z,16.91
2018-06-29T22:35:26.223Z,16.87
2018-06-29T22:37:54.986Z,16.90
2018-06-29T22:40:23.846Z,16.84
2018-06-29T22:42:52.467Z,16.85
2018-06-29T22:45:21.155Z,16.89
2018-06-29T22:47:49.823Z,16.67
2018-06-29T22:50:18.902Z,16.60
2018-06-29T22:52:47.591Z,16.57
2018-06-29T22:55:16.268Z,16.58
2018-06-29T22:57:44.957Z,16.47
2018-06-29T23:00:13.581Z,16.55
2018-06-29T23:02:42.260Z,16.37
2018-06-29T23:05:10.943Z,16.39
2018-06-29T23:07:39.653Z,16.37
2018-06-29T23:10:08.301Z,16.40
2018-06-29T23:12:37.007Z,16.30
2018-06-29T23:15:05.792Z,16.21
2018-06-29T23:17:34.485Z,16.26
2018-06-29T23:20:03.253Z,16.54
2018-06-29T23:22:31.919Z,16.50
2018-06-29T23:25:00.565Z,16.50
2018-06-29T23:27:29.292Z,16.32
2018-06-29T23:29:57.948Z,16.24
2018-06-29T23:32:26.593Z,16.21
2018-06-29T23:34:55.280Z,16.16
2018-06-29T23:37:23.932Z,16.12
2018-06-29T23:39:53.162Z,16.16
2018-06-29T23:42:21.830Z,16.10
2018-06-29T23:44:50.600Z,16.18
2018-06-29T23:47:19.323Z,16.05
2018-06-29T23:49:48.014Z,16.13
2018-06-29T23:52:16.680Z,16.04
2018-06-29T23:54:45.373Z,15.97
2018-06-29T23:57:14.044Z,15.82
2018-06-29T23:59:42.730Z,15.91
